sensor_id;sensor_type;location;lat;lon;timestamp;temperature;humidity
19930;DHT22;10127;47.780;9.606;2023-03-01T00:02:06;1.90;99.90
19930;DHT22;10127;47.780;9.606;2023-03-01T00:04:32;1.90;99.90
19930;DHT22;10127;47.780;9.606;2023-03-01T00:06:57;1.80;99.90
19930;DHT22;10127;47.780;9.606;2023-03-01T00:09:23;1.90;99.90
19930;DHT22;10127;47.780;9.606;2023-03-01T00:11:48;2.00;99.90
19930;DHT22;10127;47.780;9.606;2023-03-01T00:14:14;2.20;99.90
19930;DHT22;10127;47.780;9.606;2023-03-01T00:16:43;2.20;99.90
19930;DHT22;10127;47.780;9.606;2023-03-01T00:19:13;2.40;99.90
19930;DHT22;10127;47.780;9.606;2023-03-01T00:21:39;2.40;99.90
19930;DHT22;10127;47.780;9.606;2023-03-01T00:24:05;2.50;99.90
19930;DHT22;10127;47.780;9.606;2023-03-01T00:26:31;2.50;99.90
19930;DHT22;10127;47.780;9.606;2023-03-01T00:28:58;2.60;99.90
19930;DHT22;10127;47.780;9.606;2023-03-01T00:31:26;2.50;99.90
19930;DHT22;10127;47.780;9.606;2023-03-01T00:33:56;2.40;99.90
19930;DHT22;10127;47.780;9.606;2023-03-01T00:36:24;2.30;99.90
19930;DHT22;10127;47.780;9.606;2023-03-01T00:38:50;2.50;99.90
19930;DHT22;10127;47.780;9.606;2023-03-01T00:41:17;2.60;99.90
19930;DHT22;10127;47.780;9.606;2023-03-01T00:43:44;2.80;99.90
19930;DHT22;10127;47.780;9.606;2023-03-01T00:46:13;2.90;99.90
19930;DHT22;10127;47.780;9.606;2023-03-01T00:48:39;3.00;99.90
19930;DHT22;10127;47.780;9.606;2023-03-01T00:51:11;3.00;99.90
19930;DHT22;10127;47.780;9.606;2023-03-01T00:53:37;3.00;99.90
19930;DHT22;10127;47.780;9.606;2023-03-01T00:56:04;3.00;99.90
19930;DHT22;10127;47.780;9.606;2023-03-01T00:58:30;2.90;99.90
19930;DHT22;10127;47.780;9.606;2023-03-01T01:00:56;2.80;99.90
19930;DHT22;10127;47.780;9.606;2023-03-01T01:03:22;2.80;99.90
19930;DHT22;10127;47.780;9.606;2023-03-01T01:05:50;2.70;99.90
19930;DHT22;10127;47.780;9.606;2023-03-01T01:08:15;2.60;99.90
19930;DHT22;10127;47.780;9.606;2023-03-01T01:10:46;2.80;99.90
19930;DHT22;10127;47.780;9.606;2023-03-01T01:13:12;3.00;99.90
19930;DHT22;10127;47.780;9.606;2023-03-01T01:15:39;3.10;99.90
19930;DHT22;10127;47.780;9.606;2023-03-01T01:18:05;3.00;99.90
19930;DHT22;10127;47.780;9.606;2023-03-01T01:20:31;2.80;99.90
19930;DHT22;10127;47.780;9.606;2023-03-01T01:22:57;2.90;99.90
19930;DHT22;10127;47.780;9.606;2023-03-01T01:25:23;3.10;99.90
19930;DHT22;10127;47.780;9.606;2023-03-01T01:27:50;3.10;99.90
19930;DHT22;10127;47.780;9.606;2023-03-01T01:30:16;3.20;99.90
19930;DHT22;10127;47.780;9.606;2023-03-01T01:32:42;3.20;99.90
19930;DHT22;10127;47.780;9.606;2023-03-01T01:35:08;3.10;99.90
19930;DHT22;10127;47.780;9.606;2023-03-01T01:37:34;3.00;99.90
19930;DHT22;10127;47.780;9.606;2023-03-01T01:40:03;3.00;99.90
19930;DHT22;10127;47.780;9.606;2023-03-01T01:42:30;3.00;99.90
19930;DHT22;10127;47.780;9.606;2023-03-01T01:47:59;3.00;99.90
19930;DHT22;10127;47.780;9.606;2023-03-01T01:50:26;3.10;99.90
19930;DHT22;10127;47.780;9.606;2023-03-01T01:52:53;3.10;99.90
19930;DHT22;10127;47.780;9.606;2023-03-01T01:55:23;3.20;99.90
19930;DHT22;10127;47.780;9.606;2023-03-01T01:57:56;3.30;99.90
19930;DHT22;10127;47.780;9.606;2023-03-01T02:00:28;3.30;99.90
19930;DHT22;10127;47.780;9.606;2023-03-01T02:03:08;3.10;99.90
19930;DHT22;10127;47.780;9.606;2023-03-01T02:08:04;3.10;99.90
19930;DHT22;10127;47.780;9.606;2023-03-01T02:10:32;3.20;99.90
19930;DHT22;10127;47.780;9.606;2023-03-01T02:12:58;3.00;99.90
19930;DHT22;10127;47.780;9.606;2023-03-01T02:15:25;3.10;99.90
19930;DHT22;10127;47.780;9.606;2023-03-01T02:17:52;3.30;99.90
19930;DHT22;10127;47.780;9.606;2023-03-01T02:20:35;3.20;99.90
19930;DHT22;10127;47.780;9.606;2023-03-01T02:23:03;3.20;99.90
19930;DHT22;10127;47.780;9.606;2023-03-01T02:30:47;3.00;99.90
19930;DHT22;10127;47.780;9.606;2023-03-01T02:33:33;3.00;99.90
19930;DHT22;10127;47.780;9.606;2023-03-01T02:36:06;2.90;99.90
19930;DHT22;10127;47.780;9.606;2023-03-01T02:38:32;2.90;99.90
19930;DHT22;10127;47.780;9.606;2023-03-01T02:40:58;3.00;99.90
19930;DHT22;10127;47.780;9.606;2023-03-01T02:43:30;3.00;99.90
19930;DHT22;10127;47.780;9.606;2023-03-01T02:46:02;3.00;99.90
19930;DHT22;10127;47.780;9.606;2023-03-01T02:48:39;3.10;99.90
19930;DHT22;10127;47.780;9.606;2023-03-01T03:11:39;2.90;99.90
19930;DHT22;10127;47.780;9.606;2023-03-01T03:14:07;2.80;99.90
19930;DHT22;10127;47.780;9.606;2023-03-01T03:16:43;2.80;99.90
19930;DHT22;10127;47.780;9.606;2023-03-01T03:19:08;2.80;99.90
19930;DHT22;10127;47.780;9.606;2023-03-01T03:21:34;2.70;99.90
19930;DHT22;10127;47.780;9.606;2023-03-01T03:24:00;2.70;99.90
19930;DHT22;10127;47.780;9.606;2023-03-01T03:26:25;2.70;99.90
19930;DHT22;10127;47.780;9.606;2023-03-01T03:28:51;2.70;99.90
19930;DHT22;10127;47.780;9.606;2023-03-01T03:31:17;2.70;99.90
19930;DHT22;10127;47.780;9.606;2023-03-01T03:33:43;2.70;99.90
19930;DHT22;10127;47.780;9.606;2023-03-01T03:36:09;2.50;99.90
19930;DHT22;10127;47.780;9.606;2023-03-01T03:38:39;2.60;99.90
19930;DHT22;10127;47.780;9.606;2023-03-01T03:41:07;2.60;99.90
19930;DHT22;10127;47.780;9.606;2023-03-01T03:43:35;2.60;99.90
19930;DHT22;10127;47.780;9.606;2023-03-01T03:46:02;2.60;99.90
19930;DHT22;10127;47.780;9.606;2023-03-01T03:48:34;2.50;99.90
19930;DHT22;10127;47.780;9.606;2023-03-01T03:51:00;2.70;99.90
19930;DHT22;10127;47.780;9.606;2023-03-01T03:53:28;2.80;99.90
19930;DHT22;10127;47.780;9.606;2023-03-01T03:55:54;2.80;99.90
19930;DHT22;10127;47.780;9.606;2023-03-01T03:58:21;2.70;99.90
19930;DHT22;10127;47.780;9.606;2023-03-01T04:00:50;2.70;99.90
19930;DHT22;10127;47.780;9.606;2023-03-01T04:03:17;2.80;99.90
19930;DHT22;10127;47.780;9.606;2023-03-01T04:05:44;2.70;99.90
19930;DHT22;10127;47.780;9.606;2023-03-01T04:08:09;2.70;99.90
19930;DHT22;10127;47.780;9.606;2023-03-01T04:10:44;2.60;99.90
19930;DHT22;10127;47.780;9.606;2023-03-01T04:13:13;2.70;99.90
19930;DHT22;10127;47.780;9.606;2023-03-01T04:15:39;2.60;99.90
19930;DHT22;10127;47.780;9.606;2023-03-01T04:18:05;2.50;99.90
19930;DHT22;10127;47.780;9.606;2023-03-01T04:20:33;2.80;99.90
19930;DHT22;10127;47.780;9.606;2023-03-01T04:23:17;2.80;99.90
19930;DHT22;10127;47.780;9.606;2023-03-01T04:25:56;2.80;99.90
19930;DHT22;10127;47.780;9.606;2023-03-01T04:28:24;3.00;99.90
19930;DHT22;10127;47.780;9.606;2023-03-01T04:30:51;3.30;99.90
19930;DHT22;10127;47.780;9.606;2023-03-01T04:33:17;3.00;99.90
19930;DHT22;10127;47.780;9.606;2023-03-01T04:35:42;3.00;99.90
19930;DHT22;10127;47.780;9.606;2023-03-01T04:38:08;2.90;99.90
19930;DHT22;10127;47.780;9.606;2023-03-01T04:40:34;2.80;99.90
19930;DHT22;10127;47.780;9.606;2023-03-01T04:43:00;2.70;99.90
19930;DHT22;10127;47.780;9.606;2023-03-01T04:45:26;2.70;99.90
19930;DHT22;10127;47.780;9.606;2023-03-01T04:47:51;2.70;99.90
19930;DHT22;10127;47.780;9.606;2023-03-01T04:50:20;2.70;99.90
19930;DHT22;10127;47.780;9.606;2023-03-01T04:52:47;2.70;99.90
19930;DHT22;10127;47.780;9.606;2023-03-01T04:55:13;2.90;99.90
19930;DHT22;10127;47.780;9.606;2023-03-01T04:57:39;2.80;99.90
19930;DHT22;10127;47.780;9.606;2023-03-01T05:00:08;2.90;99.90
19930;DHT22;10127;47.780;9.606;2023-03-01T05:02:53;3.00;99.90
19930;DHT22;10127;47.780;9.606;2023-03-01T05:05:20;3.20;99.90
19930;DHT22;10127;47.780;9.606;2023-03-01T05:07:46;3.10;99.90
19930;DHT22;10127;47.780;9.606;2023-03-01T05:10:12;3.00;99.90
19930;DHT22;10127;47.780;9.606;2023-03-01T05:12:38;2.90;99.90
19930;DHT22;10127;47.780;9.606;2023-03-01T05:15:04;2.90;99.90
19930;DHT22;10127;47.780;9.606;2023-03-01T05:17:33;3.00;99.90
19930;DHT22;10127;47.780;9.606;2023-03-01T05:19:59;3.10;99.90
19930;DHT22;10127;47.780;9.606;2023-03-01T05:22:25;2.90;99.90
19930;DHT22;10127;47.780;9.606;2023-03-01T05:24:50;2.90;99.90
19930;DHT22;10127;47.780;9.606;2023-03-01T05:27:16;3.20;99.90
19930;DHT22;10127;47.780;9.606;2023-03-01T05:29:42;3.30;99.90
19930;DHT22;10127;47.780;9.606;2023-03-01T05:32:07;3.30;99.90
19930;DHT22;10127;47.780;9.606;2023-03-01T05:34:35;3.40;99.90
19930;DHT22;10127;47.780;9.606;2023-03-01T05:37:02;3.30;99.90
19930;DHT22;10127;47.780;9.606;2023-03-01T05:39:29;3.30;99.90
19930;DHT22;10127;47.780;9.606;2023-03-01T05:41:56;3.30;99.90
19930;DHT22;10127;47.780;9.606;2023-03-01T05:44:23;3.30;99.90
19930;DHT22;10127;47.780;9.606;2023-03-01T05:46:49;3.50;99.90
19930;DHT22;10127;47.780;9.606;2023-03-01T05:49:15;3.40;99.90
19930;DHT22;10127;47.780;9.606;2023-03-01T05:51:41;3.40;99.90
19930;DHT22;10127;47.780;9.606;2023-03-01T05:54:08;3.40;99.90
19930;DHT22;10127;47.780;9.606;2023-03-01T05:56:34;3.40;99.90
19930;DHT22;10127;47.780;9.606;2023-03-01T05:59:01;3.30;99.90
19930;DHT22;10127;47.780;9.606;2023-03-01T06:01:27;3.50;99.90
19930;DHT22;10127;47.780;9.606;2023-03-01T06:03:52;3.40;99.90
19930;DHT22;10127;47.780;9.606;2023-03-01T06:06:18;3.50;99.90
19930;DHT22;10127;47.780;9.606;2023-03-01T06:08:43;3.40;99.90
19930;DHT22;10127;47.780;9.606;2023-03-01T06:11:09;3.50;99.90
19930;DHT22;10127;47.780;9.606;2023-03-01T06:13:35;3.60;99.90
19930;DHT22;10127;47.780;9.606;2023-03-01T06:16:00;3.50;99.90
19930;DHT22;10127;47.780;9.606;2023-03-01T06:18:26;3.40;99.90
19930;DHT22;10127;47.780;9.606;2023-03-01T06:20:55;3.40;99.90
19930;DHT22;10127;47.780;9.606;2023-03-01T06:23:22;3.40;99.90
19930;DHT22;10127;47.780;9.606;2023-03-01T06:25:48;3.50;99.90
19930;DHT22;10127;47.780;9.606;2023-03-01T06:28:14;3.50;99.90
19930;DHT22;10127;47.780;9.606;2023-03-01T06:30:39;3.40;99.90
19930;DHT22;10127;47.780;9.606;2023-03-01T06:33:05;3.60;99.90
19930;DHT22;10127;47.780;9.606;2023-03-01T06:35:31;3.60;99.90
19930;DHT22;10127;47.780;9.606;2023-03-01T06:37:58;3.40;99.90
19930;DHT22;10127;47.780;9.606;2023-03-01T06:40:24;3.40;99.90
19930;DHT22;10127;47.780;9.606;2023-03-01T06:42:51;3.50;99.90
19930;DHT22;10127;47.780;9.606;2023-03-01T06:45:18;3.60;99.90
19930;DHT22;10127;47.780;9.606;2023-03-01T06:47:44;3.50;99.90
19930;DHT22;10127;47.780;9.606;2023-03-01T06:50:10;3.60;99.90
19930;DHT22;10127;47.780;9.606;2023-03-01T06:52:36;3.60;99.90
19930;DHT22;10127;47.780;9.606;2023-03-01T06:55:01;3.60;99.90
19930;DHT22;10127;47.780;9.606;2023-03-01T06:57:27;3.70;99.90
19930;DHT22;10127;47.780;9.606;2023-03-01T06:59:53;3.40;99.90
19930;DHT22;10127;47.780;9.606;2023-03-01T07:02:19;3.60;99.90
19930;DHT22;10127;47.780;9.606;2023-03-01T07:04:45;3.70;99.90
19930;DHT22;10127;47.780;9.606;2023-03-01T07:07:11;4.00;99.90
19930;DHT22;10127;47.780;9.606;2023-03-01T07:09:37;4.10;99.90
19930;DHT22;10127;47.780;9.606;2023-03-01T07:12:02;4.00;99.90
19930;DHT22;10127;47.780;9.606;2023-03-01T07:14:28;4.20;99.90
19930;DHT22;10127;47.780;9.606;2023-03-01T07:16:54;4.30;99.90
19930;DHT22;10127;47.780;9.606;2023-03-01T07:19:20;4.00;99.90
19930;DHT22;10127;47.780;9.606;2023-03-01T07:21:46;3.70;99.90
19930;DHT22;10127;47.780;9.606;2023-03-01T07:24:12;3.80;99.90
19930;DHT22;10127;47.780;9.606;2023-03-01T07:26:37;4.00;99.90
19930;DHT22;10127;47.780;9.606;2023-03-01T07:29:05;4.20;99.90
19930;DHT22;10127;47.780;9.606;2023-03-01T07:31:31;4.20;99.90
19930;DHT22;10127;47.780;9.606;2023-03-01T07:33:57;4.00;99.90
19930;DHT22;10127;47.780;9.606;2023-03-01T07:36:23;4.30;99.90
19930;DHT22;10127;47.780;9.606;2023-03-01T07:38:49;4.20;99.90
19930;DHT22;10127;47.780;9.606;2023-03-01T07:41:14;4.10;99.90
19930;DHT22;10127;47.780;9.606;2023-03-01T07:43:40;4.00;99.90
19930;DHT22;10127;47.780;9.606;2023-03-01T07:46:06;4.10;99.90
19930;DHT22;10127;47.780;9.606;2023-03-01T07:48:33;4.10;99.90
19930;DHT22;10127;47.780;9.606;2023-03-01T07:51:03;4.40;99.90
19930;DHT22;10127;47.780;9.606;2023-03-01T07:53:30;4.60;99.90
19930;DHT22;10127;47.780;9.606;2023-03-01T07:56:08;4.60;99.90
19930;DHT22;10127;47.780;9.606;2023-03-01T07:58:41;4.60;99.90
19930;DHT22;10127;47.780;9.606;2023-03-01T08:01:10;4.60;99.90
19930;DHT22;10127;47.780;9.606;2023-03-01T08:03:36;4.50;99.90
19930;DHT22;10127;47.780;9.606;2023-03-01T08:06:04;4.40;99.90
19930;DHT22;10127;47.780;9.606;2023-03-01T08:08:30;4.50;99.90
19930;DHT22;10127;47.780;9.606;2023-03-01T08:10:57;4.60;99.90
19930;DHT22;10127;47.780;9.606;2023-03-01T08:13:23;4.60;99.90
19930;DHT22;10127;47.780;9.606;2023-03-01T08:15:51;4.60;99.90
19930;DHT22;10127;47.780;9.606;2023-03-01T08:18:19;4.60;99.90
19930;DHT22;10127;47.780;9.606;2023-03-01T08:20:45;4.50;99.90
19930;DHT22;10127;47.780;9.606;2023-03-01T08:23:11;4.40;99.90
19930;DHT22;10127;47.780;9.606;2023-03-01T08:25:36;4.50;99.90
19930;DHT22;10127;47.780;9.606;2023-03-01T08:28:02;4.60;99.90
19930;DHT22;10127;47.780;9.606;2023-03-01T08:30:28;4.80;99.90
19930;DHT22;10127;47.780;9.606;2023-03-01T08:32:53;4.70;99.90
19930;DHT22;10127;47.780;9.606;2023-03-01T08:35:20;4.70;99.90
19930;DHT22;10127;47.780;9.606;2023-03-01T08:37:46;4.60;99.90
19930;DHT22;10127;47.780;9.606;2023-03-01T08:40:12;4.80;99.90
19930;DHT22;10127;47.780;9.606;2023-03-01T08:42:41;4.70;99.90
19930;DHT22;10127;47.780;9.606;2023-03-01T08:45:11;4.90;99.90
19930;DHT22;10127;47.780;9.606;2023-03-01T08:47:37;4.80;99.90
19930;DHT22;10127;47.780;9.606;2023-03-01T08:50:04;4.80;99.90
19930;DHT22;10127;47.780;9.606;2023-03-01T08:52:29;4.80;99.90
19930;DHT22;10127;47.780;9.606;2023-03-01T08:54:55;4.80;99.90
19930;DHT22;10127;47.780;9.606;2023-03-01T08:57:21;4.90;99.90
19930;DHT22;10127;47.780;9.606;2023-03-01T08:59:47;4.90;99.90
19930;DHT22;10127;47.780;9.606;2023-03-01T09:02:15;4.90;99.90
19930;DHT22;10127;47.780;9.606;2023-03-01T09:04:41;4.90;99.90
19930;DHT22;10127;47.780;9.606;2023-03-01T09:07:07;4.90;99.90
19930;DHT22;10127;47.780;9.606;2023-03-01T09:09:33;4.90;99.90
19930;DHT22;10127;47.780;9.606;2023-03-01T09:11:59;4.80;99.90
19930;DHT22;10127;47.780;9.606;2023-03-01T09:14:24;4.80;99.90
19930;DHT22;10127;47.780;9.606;2023-03-01T09:16:50;4.90;99.90
19930;DHT22;10127;47.780;9.606;2023-03-01T09:19:16;4.80;99.90
19930;DHT22;10127;47.780;9.606;2023-03-01T09:21:41;4.70;99.90
19930;DHT22;10127;47.780;9.606;2023-03-01T09:24:17;5.00;99.90
19930;DHT22;10127;47.780;9.606;2023-03-01T09:26:43;5.00;99.90
19930;DHT22;10127;47.780;9.606;2023-03-01T09:29:11;4.90;99.90
19930;DHT22;10127;47.780;9.606;2023-03-01T09:31:37;4.60;99.90
19930;DHT22;10127;47.780;9.606;2023-03-01T09:34:03;4.80;99.90
19930;DHT22;10127;47.780;9.606;2023-03-01T09:36:28;4.90;99.90
19930;DHT22;10127;47.780;9.606;2023-03-01T09:38:54;5.00;99.90
19930;DHT22;10127;47.780;9.606;2023-03-01T09:46:46;5.30;99.90
19930;DHT22;10127;47.780;9.606;2023-03-01T09:49:18;5.30;99.90
19930;DHT22;10127;47.780;9.606;2023-03-01T09:54:20;5.40;99.90
19930;DHT22;10127;47.780;9.606;2023-03-01T10:00:03;5.10;99.90
19930;DHT22;10127;47.780;9.606;2023-03-01T10:02:44;5.30;99.90
19930;DHT22;10127;47.780;9.606;2023-03-01T10:08:00;5.60;99.90
19930;DHT22;10127;47.780;9.606;2023-03-01T10:10:47;5.40;99.90
19930;DHT22;10127;47.780;9.606;2023-03-01T10:13:25;5.40;99.90
19930;DHT22;10127;47.780;9.606;2023-03-01T10:16:18;5.10;99.90
19930;DHT22;10127;47.780;9.606;2023-03-01T10:18:50;5.10;99.90
19930;DHT22;10127;47.780;9.606;2023-03-01T10:21:19;5.10;99.90
19930;DHT22;10127;47.780;9.606;2023-03-01T10:23:46;4.70;99.90
19930;DHT22;10127;47.780;9.606;2023-03-01T10:26:24;4.30;99.90
19930;DHT22;10127;47.780;9.606;2023-03-01T10:31:23;4.10;99.90
19930;DHT22;10127;47.780;9.606;2023-03-01T10:33:53;4.30;99.90
19930;DHT22;10127;47.780;9.606;2023-03-01T10:36:21;4.20;99.90
19930;DHT22;10127;47.780;9.606;2023-03-01T10:38:55;4.20;99.90
19930;DHT22;10127;47.780;9.606;2023-03-01T10:41:23;4.00;99.90
19930;DHT22;10127;47.780;9.606;2023-03-01T10:43:57;4.20;99.90
19930;DHT22;10127;47.780;9.606;2023-03-01T10:46:31;4.10;99.90
19930;DHT22;10127;47.780;9.606;2023-03-01T10:49:21;4.10;99.90
19930;DHT22;10127;47.780;9.606;2023-03-01T10:51:50;4.30;99.90
19930;DHT22;10127;47.780;9.606;2023-03-01T10:54:22;4.40;99.90
19930;DHT22;10127;47.780;9.606;2023-03-01T10:56:57;4.40;99.90
19930;DHT22;10127;47.780;9.606;2023-03-01T10:59:34;4.60;99.90
19930;DHT22;10127;47.780;9.606;2023-03-01T11:02:28;4.60;99.90
19930;DHT22;10127;47.780;9.606;2023-03-01T11:10:35;4.20;99.90
19930;DHT22;10127;47.780;9.606;2023-03-01T11:13:14;4.30;99.90
19930;DHT22;10127;47.780;9.606;2023-03-01T11:15:41;4.00;99.90
19930;DHT22;10127;47.780;9.606;2023-03-01T11:18:21;3.90;99.90
19930;DHT22;10127;47.780;9.606;2023-03-01T11:20:49;3.60;99.90
19930;DHT22;10127;47.780;9.606;2023-03-01T11:23:17;3.70;99.90
19930;DHT22;10127;47.780;9.606;2023-03-01T11:25:49;3.70;99.90
19930;DHT22;10127;47.780;9.606;2023-03-01T11:28:19;3.50;99.90
19930;DHT22;10127;47.780;9.606;2023-03-01T11:31:19;3.80;99.90
19930;DHT22;10127;47.780;9.606;2023-03-01T11:33:59;3.90;99.90
19930;DHT22;10127;47.780;9.606;2023-03-01T11:38:57;3.80;99.90
19930;DHT22;10127;47.780;9.606;2023-03-01T11:41:31;3.90;99.90
19930;DHT22;10127;47.780;9.606;2023-03-01T11:49:18;4.30;99.90
19930;DHT22;10127;47.780;9.606;2023-03-01T12:23:03;5.20;99.90
19930;DHT22;10127;47.780;9.606;2023-03-01T12:40:29;5.30;99.90
19930;DHT22;10127;47.780;9.606;2023-03-01T12:48:24;5.60;99.90
19930;DHT22;10127;47.780;9.606;2023-03-01T12:50:57;5.70;99.90
19930;DHT22;10127;47.780;9.606;2023-03-01T12:53:32;5.50;99.90
19930;DHT22;10127;47.780;9.606;2023-03-01T12:56:07;5.40;99.90
19930;DHT22;10127;47.780;9.606;2023-03-01T13:01:22;5.50;99.90
19930;DHT22;10127;47.780;9.606;2023-03-01T13:11:46;6.00;99.90
19930;DHT22;10127;47.780;9.606;2023-03-01T13:16:49;6.20;99.90
19930;DHT22;10127;47.780;9.606;2023-03-01T13:19:27;6.20;99.90
19930;DHT22;10127;47.780;9.606;2023-03-01T13:21:57;6.40;99.90
19930;DHT22;10127;47.780;9.606;2023-03-01T13:24:27;6.40;99.90
19930;DHT22;10127;47.780;9.606;2023-03-01T13:29:54;6.60;99.90
19930;DHT22;10127;47.780;9.606;2023-03-01T13:32:28;6.90;99.90
19930;DHT22;10127;47.780;9.606;2023-03-01T13:37:45;6.90;99.90
19930;DHT22;10127;47.780;9.606;2023-03-01T13:42:48;6.90;99.90
19930;DHT22;10127;47.780;9.606;2023-03-01T13:45:38;6.70;99.90
19930;DHT22;10127;47.780;9.606;2023-03-01T13:50:43;6.20;99.90
19930;DHT22;10127;47.780;9.606;2023-03-01T13:53:16;5.80;99.90
19930;DHT22;10127;47.780;9.606;2023-03-01T13:55:45;5.80;99.90
19930;DHT22;10127;47.780;9.606;2023-03-01T13:58:27;5.70;99.90
19930;DHT22;10127;47.780;9.606;2023-03-01T14:03:22;5.90;99.90
19930;DHT22;10127;47.780;9.606;2023-03-01T14:08:27;5.90;99.90
19930;DHT22;10127;47.780;9.606;2023-03-01T14:19:33;5.70;99.90
19930;DHT22;10127;47.780;9.606;2023-03-01T14:22:17;5.70;99.90
19930;DHT22;10127;47.780;9.606;2023-03-01T14:25:16;5.80;99.90
19930;DHT22;10127;47.780;9.606;2023-03-01T14:27:42;5.90;99.90
19930;DHT22;10127;47.780;9.606;2023-03-01T14:33:00;6.10;99.90
19930;DHT22;10127;47.780;9.606;2023-03-01T14:35:29;5.70;99.90
19930;DHT22;10127;47.780;9.606;2023-03-01T14:37:55;5.50;99.90
19930;DHT22;10127;47.780;9.606;2023-03-01T14:40:34;5.50;99.90
19930;DHT22;10127;47.780;9.606;2023-03-01T14:43:02;5.40;99.90
19930;DHT22;10127;47.780;9.606;2023-03-01T14:45:33;5.30;99.90
19930;DHT22;10127;47.780;9.606;2023-03-01T14:48:01;5.30;99.90
19930;DHT22;10127;47.780;9.606;2023-03-01T14:50:32;5.40;99.90
19930;DHT22;10127;47.780;9.606;2023-03-01T14:53:02;5.50;99.90
19930;DHT22;10127;47.780;9.606;2023-03-01T14:58:03;5.40;99.90
19930;DHT22;10127;47.780;9.606;2023-03-01T15:00:32;5.50;99.90
19930;DHT22;10127;47.780;9.606;2023-03-01T15:03:05;5.50;99.90
19930;DHT22;10127;47.780;9.606;2023-03-01T15:05:35;5.50;99.90
19930;DHT22;10127;47.780;9.606;2023-03-01T15:08:03;5.50;99.90
19930;DHT22;10127;47.780;9.606;2023-03-01T15:10:32;5.40;99.90
19930;DHT22;10127;47.780;9.606;2023-03-01T15:13:22;5.30;99.90
19930;DHT22;10127;47.780;9.606;2023-03-01T15:15:49;5.20;99.90
19930;DHT22;10127;47.780;9.606;2023-03-01T15:18:25;5.40;99.90
19930;DHT22;10127;47.780;9.606;2023-03-01T15:20:52;5.20;99.90
19930;DHT22;10127;47.780;9.606;2023-03-01T15:23:25;5.10;99.90
19930;DHT22;10127;47.780;9.606;2023-03-01T15:25:53;5.30;99.90
19930;DHT22;10127;47.780;9.606;2023-03-01T15:30:58;5.50;99.90
19930;DHT22;10127;47.780;9.606;2023-03-01T15:33:28;5.50;99.90
19930;DHT22;10127;47.780;9.606;2023-03-01T15:35:56;5.60;99.90
19930;DHT22;10127;47.780;9.606;2023-03-01T15:38:29;5.60;99.90
19930;DHT22;10127;47.780;9.606;2023-03-01T15:40:57;5.60;99.90
19930;DHT22;10127;47.780;9.606;2023-03-01T15:43:39;5.60;99.90
19930;DHT22;10127;47.780;9.606;2023-03-01T15:46:05;5.30;99.90
19930;DHT22;10127;47.780;9.606;2023-03-01T15:48:30;5.40;99.90
19930;DHT22;10127;47.780;9.606;2023-03-01T15:50:58;5.50;99.90
19930;DHT22;10127;47.780;9.606;2023-03-01T15:53:24;5.40;99.90
19930;DHT22;10127;47.780;9.606;2023-03-01T15:55:51;5.40;99.90
19930;DHT22;10127;47.780;9.606;2023-03-01T15:58:24;5.40;99.90
19930;DHT22;10127;47.780;9.606;2023-03-01T16:00:50;5.60;99.90
19930;DHT22;10127;47.780;9.606;2023-03-01T16:03:22;5.40;99.90
19930;DHT22;10127;47.780;9.606;2023-03-01T16:05:49;5.30;99.90
19930;DHT22;10127;47.780;9.606;2023-03-01T16:08:16;5.30;99.90
19930;DHT22;10127;47.780;9.606;2023-03-01T16:10:41;5.10;99.90
19930;DHT22;10127;47.780;9.606;2023-03-01T16:13:11;5.00;99.90
19930;DHT22;10127;47.780;9.606;2023-03-01T16:15:37;5.10;99.90
19930;DHT22;10127;47.780;9.606;2023-03-01T16:18:04;5.20;99.90
19930;DHT22;10127;47.780;9.606;2023-03-01T16:20:31;5.10;99.90
19930;DHT22;10127;47.780;9.606;2023-03-01T16:23:01;5.10;99.90
19930;DHT22;10127;47.780;9.606;2023-03-01T16:25:28;5.00;99.90
19930;DHT22;10127;47.780;9.606;2023-03-01T16:27:54;5.10;99.90
19930;DHT22;10127;47.780;9.606;2023-03-01T16:30:21;5.20;99.90
19930;DHT22;10127;47.780;9.606;2023-03-01T16:32:48;5.10;99.90
19930;DHT22;10127;47.780;9.606;2023-03-01T16:35:16;5.00;99.90
19930;DHT22;10127;47.780;9.606;2023-03-01T16:37:43;4.90;99.90
19930;DHT22;10127;47.780;9.606;2023-03-01T16:40:25;5.00;99.90
19930;DHT22;10127;47.780;9.606;2023-03-01T16:42:52;5.00;99.90
19930;DHT22;10127;47.780;9.606;2023-03-01T16:45:19;5.00;99.90
19930;DHT22;10127;47.780;9.606;2023-03-01T16:47:45;4.90;99.90
19930;DHT22;10127;47.780;9.606;2023-03-01T16:50:10;4.90;99.90
19930;DHT22;10127;47.780;9.606;2023-03-01T16:52:37;5.00;99.90
19930;DHT22;10127;47.780;9.606;2023-03-01T16:55:04;5.00;99.90
19930;DHT22;10127;47.780;9.606;2023-03-01T16:57:30;5.00;99.90
19930;DHT22;10127;47.780;9.606;2023-03-01T16:59:56;5.00;99.90
19930;DHT22;10127;47.780;9.606;2023-03-01T17:02:22;5.00;99.90
19930;DHT22;10127;47.780;9.606;2023-03-01T17:04:55;5.10;99.90
19930;DHT22;10127;47.780;9.606;2023-03-01T17:07:21;5.00;99.90
19930;DHT22;10127;47.780;9.606;2023-03-01T17:09:46;5.10;99.90
19930;DHT22;10127;47.780;9.606;2023-03-01T17:12:12;5.10;99.90
19930;DHT22;10127;47.780;9.606;2023-03-01T17:14:39;5.10;99.90
19930;DHT22;10127;47.780;9.606;2023-03-01T17:17:10;5.10;99.90
19930;DHT22;10127;47.780;9.606;2023-03-01T17:19:37;5.10;99.90
19930;DHT22;10127;47.780;9.606;2023-03-01T17:22:09;5.00;99.90
19930;DHT22;10127;47.780;9.606;2023-03-01T17:24:37;5.10;99.90
19930;DHT22;10127;47.780;9.606;2023-03-01T17:27:03;5.10;99.90
19930;DHT22;10127;47.780;9.606;2023-03-01T17:29:29;5.00;99.90
19930;DHT22;10127;47.780;9.606;2023-03-01T17:31:55;5.00;99.90
19930;DHT22;10127;47.780;9.606;2023-03-01T17:34:22;5.00;99.90
19930;DHT22;10127;47.780;9.606;2023-03-01T17:36:47;5.00;99.90
19930;DHT22;10127;47.780;9.606;2023-03-01T17:39:15;5.10;99.90
19930;DHT22;10127;47.780;9.606;2023-03-01T17:41:41;5.10;99.90
19930;DHT22;10127;47.780;9.606;2023-03-01T17:44:07;5.10;99.90
19930;DHT22;10127;47.780;9.606;2023-03-01T17:46:33;5.10;99.90
19930;DHT22;10127;47.780;9.606;2023-03-01T17:48:59;5.10;99.90
19930;DHT22;10127;47.780;9.606;2023-03-01T17:51:24;5.20;99.90
19930;DHT22;10127;47.780;9.606;2023-03-01T17:53:50;5.10;99.90
19930;DHT22;10127;47.780;9.606;2023-03-01T17:56:16;5.10;99.90
19930;DHT22;10127;47.780;9.606;2023-03-01T17:58:42;5.10;99.90
19930;DHT22;10127;47.780;9.606;2023-03-01T18:01:15;5.00;99.90
19930;DHT22;10127;47.780;9.606;2023-03-01T18:03:41;4.80;99.90
19930;DHT22;10127;47.780;9.606;2023-03-01T18:06:14;4.60;99.90
19930;DHT22;10127;47.780;9.606;2023-03-01T18:08:41;4.60;99.90
19930;DHT22;10127;47.780;9.606;2023-03-01T18:11:07;4.80;99.90
19930;DHT22;10127;47.780;9.606;2023-03-01T18:13:34;4.80;99.90
19930;DHT22;10127;47.780;9.606;2023-03-01T18:16:03;4.80;99.90
19930;DHT22;10127;47.780;9.606;2023-03-01T18:18:28;4.80;99.90
19930;DHT22;10127;47.780;9.606;2023-03-01T18:20:58;5.10;99.90
19930;DHT22;10127;47.780;9.606;2023-03-01T18:23:24;5.20;99.90
19930;DHT22;10127;47.780;9.606;2023-03-01T18:25:50;5.20;99.90
19930;DHT22;10127;47.780;9.606;2023-03-01T18:28:17;5.20;99.90
19930;DHT22;10127;47.780;9.606;2023-03-01T18:30:43;5.20;99.90
19930;DHT22;10127;47.780;9.606;2023-03-01T18:33:08;5.10;99.90